Kezdőlap
METAR-TAF:

METAR-TAF

Repülőterek :

Eliszta, Oroszország

földrajzi szélesség: 46-22N, földrajzi hosszúság: 044-20E, magasság: 150 m

Jelenlegi meteorológiai megfigyelések

A jelentés 32 perccel ezelõtt készült, 19:00 UTC
Délkeleti szél 8 kt
Hőmérséklet -4°C
Páratartalom 86%
Légköri nyomás 1025 hPa
Látótávolság 10 km, vagy több

METAR: URWI 191900Z AUTO 13004MPS 9999 // NCD M04/M06 Q1025

Idő: 22:32 (19:32 UTC)

Előrejelzés

A jelentés 8 órával és 32 perccel ezelõtt készült, 11:00 UTC
Az előrejelzés 19-én 12 óra UTC és 19-én 21 óra UTC között érvényes
Keleti szél 6 kt széllökések: 16 kt
Látótávolság 10 km, vagy több
Szórványos felhőzet 1100 lábon
19-én 12 óra UTC és 19-én 21 óra UTC között ideiglenes
Keleti szél 12 kt széllökések: 23 kt
Látótávolság: 3100 m
Szakadozott felhőzet 1100 lábon
Párásság

TAF: URWI 191100Z 1912/1921 09003G08MPS 9999 SCT011 TEMPO 1912/1921 10006G12MPS 3100 BR BKN011

Meteorológiai megfigyelések és előrejelzések több, mint 4000 repülőtéren (METAR és TAF jelentéseket).

A térképen piros és sárga pontok jelzik az elérhető meteorológiai állomásokat.

Mozgassa az egeret a pont fölött, hogy megjelenjen az állomás neve.

Azután kattintson az időjárási megfigyelések és előrejelzések megtekintéséhez.

A térkép megváltoztatása: kattintson a fekete keresztel jelölt zöld gombra ráközelítéshez, a vonallal jelölt zöld gombra távolításhoz, vagy a zöld nyilakra a szomszédos térképek eléréséhez.


METAR-TAF: